createdAt,value
2018-09-27T00:01:35.858Z,2.80
2018-09-27T00:04:02.704Z,3.07
2018-09-27T00:06:29.650Z,3.20
2018-09-27T00:08:56.518Z,3.67
2018-09-27T00:11:24.400Z,3.13
2018-09-27T00:13:51.262Z,4.20
2018-09-27T00:16:18.246Z,3.63
2018-09-27T00:18:45.243Z,3.70
2018-09-27T00:21:12.134Z,4.93
2018-09-27T00:23:38.990Z,4.13
2018-09-27T00:26:06.614Z,4.10
2018-09-27T00:28:33.510Z,4.10
2018-09-27T00:31:01.419Z,3.53
2018-09-27T00:33:28.360Z,3.00
2018-09-27T00:35:55.310Z,3.93
2018-09-27T00:38:22.295Z,3.70
2018-09-27T00:40:49.331Z,3.87
2018-09-27T00:43:16.270Z,3.60
2018-09-27T00:45:43.722Z,3.60
2018-09-27T00:48:11.934Z,3.50
2018-09-27T00:50:40.017Z,4.23
2018-09-27T00:53:07.078Z,3.33
2018-09-27T00:55:33.934Z,3.30
2018-09-27T00:58:01.858Z,3.83
2018-09-27T01:00:28.778Z,3.20
2018-09-27T01:02:55.634Z,3.07
2018-09-27T01:05:22.576Z,3.27
2018-09-27T01:07:49.410Z,3.23
2018-09-27T01:10:16.342Z,3.10
2018-09-27T01:12:43.354Z,3.07
2018-09-27T01:15:12.257Z,3.30
2018-09-27T01:17:39.099Z,3.50
2018-09-27T01:20:05.978Z,2.67
2018-09-27T01:22:32.946Z,3.97
2018-09-27T01:24:59.882Z,2.53
2018-09-27T01:27:26.742Z,3.37
2018-09-27T01:29:53.622Z,3.30
2018-09-27T01:32:20.591Z,3.53
2018-09-27T01:34:47.498Z,3.00
2018-09-27T01:37:15.429Z,2.80
2018-09-27T01:39:42.262Z,2.80
2018-09-27T01:42:09.190Z,2.47
2018-09-27T01:44:37.077Z,3.27
2018-09-27T01:47:03.996Z,3.40
2018-09-27T01:49:30.903Z,2.43
2018-09-27T01:51:57.842Z,3.07
2018-09-27T01:54:25.722Z,2.83
2018-09-27T01:56:52.610Z,3.27
2018-09-27T01:59:19.446Z,2.70
2018-09-27T02:01:46.389Z,2.50
2018-09-27T02:04:14.279Z,2.80
2018-09-27T02:06:41.126Z,3.40
2018-09-27T02:09:08.602Z,3.90
2018-09-27T02:11:35.523Z,3.17
2018-09-27T02:14:02.433Z,3.57
2018-09-27T02:16:29.366Z,2.55
2018-09-27T02:18:56.232Z,2.70
2018-09-27T02:21:24.104Z,2.87
2018-09-27T02:23:50.970Z,2.90
2018-09-27T02:26:17.946Z,3.10
2018-09-27T02:28:44.869Z,3.37
2018-09-27T02:31:11.747Z,2.70
2018-09-27T02:33:38.679Z,2.90
2018-09-27T02:36:05.570Z,3.10
2018-09-27T02:38:32.638Z,2.77
2018-09-27T02:40:59.558Z,3.10
2018-09-27T02:43:26.414Z,2.70
2018-09-27T02:45:53.246Z,2.90
2018-09-27T02:48:20.130Z,3.03
2018-09-27T02:50:47.143Z,2.40
2018-09-27T02:53:14.034Z,2.93
2018-09-27T02:55:40.877Z,2.60
2018-09-27T02:58:07.896Z,3.17
2018-09-27T03:00:40.002Z,2.50
2018-09-27T03:03:06.903Z,2.90
2018-09-27T03:05:33.749Z,2.90
2018-09-27T03:08:00.703Z,2.73
2018-09-27T03:10:27.650Z,2.87
2018-09-27T03:12:54.583Z,3.20
2018-09-27T03:15:21.469Z,2.97
2018-09-27T03:17:48.338Z,2.40
2018-09-27T03:20:15.285Z,2.73
2018-09-27T03:22:42.165Z,2.73
2018-09-27T03:25:09.014Z,3.07
2018-09-27T03:27:35.855Z,2.53
2018-09-27T03:30:02.825Z,2.57
2018-09-27T03:32:29.778Z,3.20
2018-09-27T03:34:57.007Z,2.67
2018-09-27T03:37:23.883Z,2.60
2018-09-27T03:39:50.791Z,2.97
2018-09-27T03:42:17.628Z,2.80
2018-09-27T03:44:44.438Z,3.10
2018-09-27T03:47:11.297Z,2.63
2018-09-27T03:49:38.167Z,3.00
2018-09-27T03:52:05.130Z,2.20
2018-09-27T03:54:32.072Z,2.67
2018-09-27T03:56:59.035Z,2.67
2018-09-27T03:59:25.957Z,2.60
2018-09-27T04:01:52.850Z,2.80
2018-09-27T04:04:19.810Z,2.30
2018-09-27T04:06:46.774Z,2.60
2018-09-27T04:09:13.706Z,2.70
2018-09-27T04:11:40.583Z,2.80
2018-09-27T04:14:08.057Z,3.10
2018-09-27T04:16:35.068Z,3.10
2018-09-27T04:19:02.039Z,2.87
2018-09-27T04:21:28.906Z,3.20
2018-09-27T04:23:55.910Z,2.63
2018-09-27T04:26:22.770Z,2.30
2018-09-27T04:28:49.677Z,2.57
2018-09-27T04:31:16.498Z,2.67
2018-09-27T04:33:48.007Z,2.70
2018-09-27T04:36:14.846Z,2.40
2018-09-27T04:38:42.726Z,2.73
2018-09-27T04:41:09.587Z,2.37
2018-09-27T04:43:36.425Z,2.80
2018-09-27T04:46:03.415Z,2.27
2018-09-27T04:48:30.623Z,2.67
2018-09-27T04:50:57.537Z,2.70
2018-09-27T04:53:24.478Z,2.70
2018-09-27T04:55:51.397Z,2.40
2018-09-27T04:58:19.351Z,2.40
2018-09-27T05:00:46.327Z,2.77
2018-09-27T05:03:13.210Z,2.80
2018-09-27T05:05:43.600Z,2.57
2018-09-27T05:08:11.548Z,2.67
2018-09-27T05:10:38.525Z,3.40
2018-09-27T05:13:05.454Z,2.63
2018-09-27T05:15:32.516Z,2.47
2018-09-27T05:18:00.402Z,2.43
2018-09-27T05:20:27.296Z,2.60
2018-09-27T05:22:54.109Z,2.60
2018-09-27T05:25:21.056Z,2.60
2018-09-27T05:27:48.995Z,2.60
2018-09-27T05:30:15.900Z,2.33
2018-09-27T05:32:42.750Z,2.83
2018-09-27T05:35:09.626Z,2.60
2018-09-27T05:37:36.526Z,2.27
2018-09-27T05:40:03.435Z,2.37
2018-09-27T05:42:30.294Z,2.50
2018-09-27T05:44:57.234Z,2.73
2018-09-27T05:47:25.122Z,2.87
2018-09-27T05:49:53.055Z,2.17
2018-09-27T05:52:19.968Z,2.40
2018-09-27T05:54:46.910Z,2.43
2018-09-27T05:57:13.762Z,2.57
2018-09-27T05:59:40.622Z,2.53
2018-09-27T06:02:07.645Z,2.90
2018-09-27T06:04:34.432Z,3.57
2018-09-27T06:07:01.295Z,2.97
2018-09-27T06:09:28.268Z,3.33
2018-09-27T06:11:55.198Z,3.30
2018-09-27T06:14:23.103Z,4.13
2018-09-27T06:16:50.042Z,3.90
2018-09-27T06:19:17.016Z,3.20
2018-09-27T06:21:44.045Z,3.13
2018-09-27T06:24:16.650Z,3.17
2018-09-27T06:26:53.901Z,3.83
2018-09-27T06:29:20.814Z,4.10
2018-09-27T06:31:47.658Z,5.90
2018-09-27T06:34:14.510Z,5.20
2018-09-27T06:36:41.366Z,4.97
2018-09-27T06:39:09.246Z,5.20
2018-09-27T06:41:36.118Z,5.30
2018-09-27T06:44:03.086Z,5.63
2018-09-27T06:46:30.034Z,5.00
2018-09-27T06:48:56.974Z,4.87
2018-09-27T06:51:23.931Z,5.33
2018-09-27T06:53:50.770Z,4.80
2018-09-27T06:56:17.701Z,4.67
2018-09-27T06:58:44.470Z,4.70
2018-09-27T07:01:11.346Z,4.67
2018-09-27T07:03:38.183Z,5.70
2018-09-27T07:06:07.158Z,4.53
2018-09-27T07:08:34.076Z,3.80
2018-09-27T07:11:00.950Z,4.30
2018-09-27T07:13:27.873Z,4.00
2018-09-27T07:15:54.734Z,4.07
2018-09-27T07:18:21.777Z,3.97
2018-09-27T07:20:48.745Z,3.90
2018-09-27T07:23:15.543Z,3.83
2018-09-27T07:25:42.487Z,4.00
2018-09-27T07:28:09.407Z,3.50
2018-09-27T07:30:36.262Z,4.00
2018-09-27T07:33:03.158Z,3.10
2018-09-27T07:35:29.987Z,4.00
2018-09-27T07:37:56.839Z,4.10
2018-09-27T07:40:23.686Z,3.60
2018-09-27T07:42:50.555Z,3.20
2018-09-27T07:45:17.370Z,4.13
2018-09-27T07:47:44.258Z,4.30
2018-09-27T07:50:11.122Z,4.30
2018-09-27T07:52:38.066Z,3.73
2018-09-27T07:55:04.964Z,4.07
2018-09-27T07:57:31.879Z,3.87
2018-09-27T08:00:03.559Z,4.63
2018-09-27T08:02:30.418Z,3.87
2018-09-27T08:04:57.357Z,4.40
2018-09-27T08:07:24.182Z,4.00
2018-09-27T08:09:51.087Z,4.00
2018-09-27T08:12:18.067Z,4.10
2018-09-27T08:14:45.028Z,4.37
2018-09-27T08:17:11.898Z,3.83
2018-09-27T08:19:38.662Z,3.93
2018-09-27T08:22:05.786Z,4.10
2018-09-27T08:24:32.717Z,3.90
2018-09-27T08:26:59.574Z,4.50
2018-09-27T08:29:26.430Z,4.10
2018-09-27T08:31:53.290Z,4.10
2018-09-27T08:34:20.234Z,4.27
2018-09-27T08:36:47.110Z,3.60
2018-09-27T08:39:13.938Z,3.80
2018-09-27T08:41:40.837Z,3.60
2018-09-27T08:44:08.570Z,3.43
2018-09-27T08:46:35.434Z,4.00
2018-09-27T08:49:05.683Z,3.60
2018-09-27T08:51:32.660Z,3.70
2018-09-27T08:53:59.478Z,3.80
2018-09-27T08:56:26.386Z,3.70
2018-09-27T08:58:53.302Z,4.00
2018-09-27T09:01:20.129Z,4.57
2018-09-27T09:03:47.030Z,5.37
2018-09-27T09:06:13.867Z,4.53
2018-09-27T09:08:41.698Z,4.80
2018-09-27T09:11:08.534Z,4.90
2018-09-27T09:13:35.488Z,4.90
2018-09-27T09:16:02.706Z,4.90
2018-09-27T09:18:29.566Z,5.13
2018-09-27T09:20:56.434Z,4.43
2018-09-27T09:23:23.368Z,4.63
2018-09-27T09:25:50.235Z,4.50
2018-09-27T09:28:17.085Z,4.50
2018-09-27T09:30:47.321Z,4.17
2018-09-27T09:33:14.173Z,4.63
2018-09-27T09:35:41.058Z,4.17
2018-09-27T09:38:07.991Z,4.67
2018-09-27T09:40:34.843Z,4.83
2018-09-27T09:43:01.702Z,5.40
2018-09-27T09:45:28.592Z,5.23
2018-09-27T09:47:55.514Z,4.60
2018-09-27T09:50:22.370Z,4.23
2018-09-27T09:52:49.226Z,5.10
2018-09-27T09:55:16.095Z,5.73
2018-09-27T09:57:43.026Z,4.23
2018-09-27T10:00:09.870Z,5.27
2018-09-27T10:02:36.827Z,5.00
2018-09-27T10:05:03.806Z,5.20
2018-09-27T10:07:30.776Z,4.90
2018-09-27T10:09:57.747Z,4.53
2018-09-27T10:12:24.658Z,4.57
2018-09-27T10:14:51.514Z,4.07
2018-09-27T10:17:18.398Z,5.17
2018-09-27T10:19:47.249Z,5.60
2018-09-27T10:22:14.263Z,4.97
2018-09-27T10:24:41.012Z,5.03
2018-09-27T10:27:07.870Z,5.17
2018-09-27T10:29:34.809Z,5.63
2018-09-27T10:32:01.659Z,5.90
2018-09-27T10:34:28.545Z,4.50
2018-09-27T10:36:55.478Z,5.60
2018-09-27T10:39:22.488Z,5.40
2018-09-27T10:41:49.462Z,5.30
2018-09-27T10:44:16.398Z,5.23
2018-09-27T10:46:43.310Z,5.00
2018-09-27T10:49:10.163Z,5.30
2018-09-27T10:51:38.074Z,5.30
2018-09-27T10:54:05.635Z,4.87
2018-09-27T10:56:32.514Z,4.80
2018-09-27T10:58:59.418Z,4.97
2018-09-27T11:01:26.289Z,5.07
2018-09-27T11:03:53.253Z,5.10
2018-09-27T11:06:20.097Z,4.90
2018-09-27T11:08:46.949Z,4.50
2018-09-27T11:11:13.815Z,4.07
2018-09-27T11:13:40.667Z,3.90
2018-09-27T11:16:08.012Z,3.50
2018-09-27T11:18:34.854Z,4.10
2018-09-27T11:21:01.730Z,3.60
2018-09-27T11:23:28.610Z,3.30
2018-09-27T11:25:55.574Z,4.07
2018-09-27T11:28:22.558Z,3.00
2018-09-27T11:30:55.136Z,3.43
2018-09-27T11:33:22.011Z,3.30
2018-09-27T11:35:48.922Z,3.37
2018-09-27T11:38:15.874Z,3.60
2018-09-27T11:40:42.724Z,3.20
2018-09-27T11:43:09.578Z,3.30
2018-09-27T11:45:37.460Z,2.93
2018-09-27T11:48:04.515Z,3.13
2018-09-27T11:50:31.390Z,3.23
2018-09-27T11:52:58.421Z,3.80
2018-09-27T11:55:25.299Z,3.17
2018-09-27T11:57:52.231Z,2.90
2018-09-27T12:00:19.071Z,3.50
2018-09-27T12:02:45.954Z,3.37
2018-09-27T12:05:12.811Z,3.47
2018-09-27T12:07:39.779Z,3.67
2018-09-27T12:10:06.604Z,2.77
2018-09-27T12:12:33.490Z,3.43
2018-09-27T12:15:00.450Z,3.40
2018-09-27T12:17:27.507Z,3.33
2018-09-27T12:19:54.370Z,3.80
2018-09-27T12:22:21.202Z,4.00
2018-09-27T12:24:48.058Z,2.87
2018-09-27T12:27:15.367Z,3.10
2018-09-27T12:29:42.294Z,3.20
2018-09-27T12:32:09.142Z,3.43
2018-09-27T12:34:36.014Z,3.20
2018-09-27T12:37:02.970Z,3.70
2018-09-27T12:39:29.945Z,3.60
2018-09-27T12:41:56.886Z,2.80
2018-09-27T12:44:23.727Z,3.77
2018-09-27T12:46:50.591Z,3.13
2018-09-27T12:49:17.422Z,3.13
2018-09-27T12:51:44.385Z,3.20
2018-09-27T12:54:11.144Z,3.50
2018-09-27T12:56:38.001Z,2.77
2018-09-27T12:59:04.938Z,2.87
2018-09-27T13:01:31.837Z,3.67
2018-09-27T13:03:58.791Z,3.13
2018-09-27T13:06:25.596Z,3.23
2018-09-27T13:08:52.498Z,3.10
2018-09-27T13:11:19.422Z,3.27
2018-09-27T13:13:46.278Z,3.43
2018-09-27T13:16:13.195Z,3.43
2018-09-27T13:18:40.063Z,3.40
2018-09-27T13:21:06.988Z,3.80
2018-09-27T13:23:33.913Z,3.42
2018-09-27T13:26:00.857Z,3.53
2018-09-27T13:28:27.723Z,3.70
2018-09-27T13:30:54.618Z,4.10
2018-09-27T13:33:21.467Z,4.40
2018-09-27T13:35:48.378Z,4.77
2018-09-27T13:38:15.243Z,4.47
2018-09-27T13:40:42.094Z,4.20
2018-09-27T13:43:09.002Z,3.87
2018-09-27T13:45:35.903Z,3.30
2018-09-27T13:48:03.790Z,4.30
2018-09-27T13:50:30.627Z,4.10
2018-09-27T13:52:58.529Z,4.20
2018-09-27T13:55:25.502Z,3.27
2018-09-27T13:57:52.587Z,4.10
2018-09-27T14:00:21.463Z,4.83
2018-09-27T14:02:48.462Z,4.50
2018-09-27T14:05:16.343Z,5.20
2018-09-27T14:07:43.234Z,5.03
2018-09-27T14:10:11.123Z,4.60
2018-09-27T14:12:37.969Z,4.83
2018-09-27T14:15:04.837Z,5.37
2018-09-27T14:17:31.782Z,4.63
2018-09-27T14:19:58.673Z,4.70
2018-09-27T14:22:25.613Z,4.40
2018-09-27T14:24:52.565Z,5.27
2018-09-27T14:27:19.414Z,4.37
2018-09-27T14:29:46.390Z,5.20
2018-09-27T14:32:13.351Z,5.43
2018-09-27T14:34:40.181Z,4.60
2018-09-27T14:37:07.126Z,5.80
2018-09-27T14:39:33.994Z,3.80
2018-09-27T14:42:00.931Z,5.00
2018-09-27T14:44:27.828Z,4.30
2018-09-27T14:46:54.770Z,4.03
2018-09-27T14:49:21.785Z,4.47
2018-09-27T14:51:48.682Z,5.27
2018-09-27T14:54:15.614Z,5.40
2018-09-27T14:56:42.514Z,4.50
2018-09-27T14:59:09.471Z,3.93
2018-09-27T15:01:36.394Z,4.53
2018-09-27T15:04:03.245Z,5.60
2018-09-27T15:06:30.246Z,4.30
2018-09-27T15:08:57.479Z,4.30
2018-09-27T15:11:24.394Z,4.43
2018-09-27T15:13:52.298Z,5.20
2018-09-27T15:16:19.323Z,5.33
2018-09-27T15:18:46.106Z,5.40
2018-09-27T15:21:13.000Z,6.17
2018-09-27T15:23:40.019Z,5.20
2018-09-27T15:26:06.914Z,4.60
2018-09-27T15:28:33.762Z,3.90
2018-09-27T15:31:00.814Z,5.47
2018-09-27T15:33:27.735Z,4.70
2018-09-27T15:36:10.240Z,5.03
2018-09-27T15:38:37.137Z,4.80
2018-09-27T15:41:04.015Z,5.70
2018-09-27T15:43:30.866Z,4.80
2018-09-27T15:45:57.756Z,5.30
2018-09-27T15:48:24.608Z,4.07
2018-09-27T15:50:51.452Z,4.73
2018-09-27T15:53:18.405Z,4.37
2018-09-27T15:55:45.342Z,3.33
2018-09-27T15:58:12.198Z,3.60
2018-09-27T16:00:39.047Z,4.00
2018-09-27T16:03:06.038Z,3.70
2018-09-27T16:05:33.016Z,3.40
2018-09-27T16:07:59.950Z,4.17
2018-09-27T16:10:26.790Z,3.37
2018-09-27T16:12:53.638Z,3.70
2018-09-27T16:15:20.494Z,3.00
2018-09-27T16:17:47.430Z,3.00
2018-09-27T16:20:14.270Z,4.00
2018-09-27T16:22:41.166Z,3.53
2018-09-27T16:25:08.171Z,3.70
2018-09-27T16:27:35.065Z,2.90
2018-09-27T16:30:01.999Z,3.58
2018-09-27T16:32:28.894Z,3.20
2018-09-27T16:34:55.857Z,2.90
2018-09-27T16:37:22.839Z,2.97
2018-09-27T16:39:49.766Z,2.33
2018-09-27T16:42:16.652Z,2.70
2018-09-27T16:44:43.559Z,2.50
2018-09-27T16:47:10.418Z,2.70
2018-09-27T16:49:37.271Z,3.80
2018-09-27T16:52:04.110Z,2.30
2018-09-27T16:54:31.001Z,2.57
2018-09-27T16:56:57.931Z,2.70
2018-09-27T16:59:24.824Z,2.00
2018-09-27T17:01:51.742Z,2.50
2018-09-27T17:04:18.606Z,2.90
2018-09-27T17:06:45.464Z,2.70
2018-09-27T17:09:12.330Z,11.67
2018-09-27T17:11:39.258Z,11.07
2018-09-27T17:14:06.134Z,4.60
2018-09-27T17:16:33.025Z,3.20
2018-09-27T17:18:59.843Z,5.90
2018-09-27T17:21:26.702Z,4.10
2018-09-27T17:23:53.554Z,4.00
2018-09-27T17:26:20.418Z,5.60
2018-09-27T17:28:47.362Z,5.83
2018-09-27T17:31:14.233Z,7.67
2018-09-27T17:33:41.182Z,5.28
2018-09-27T17:36:08.127Z,5.30
2018-09-27T17:38:36.014Z,4.80
2018-09-27T17:41:02.908Z,6.00
2018-09-27T17:43:29.747Z,8.00
2018-09-27T17:45:56.683Z,6.00
2018-09-27T17:48:23.647Z,6.63
2018-09-27T17:50:50.658Z,7.37
2018-09-27T17:53:18.895Z,10.77
2018-09-27T17:55:45.812Z,9.40
2018-09-27T17:58:12.758Z,6.65
2018-09-27T18:00:39.814Z,5.80
2018-09-27T18:03:06.828Z,7.70
2018-09-27T18:05:33.789Z,9.43
2018-09-27T18:08:01.680Z,9.07
2018-09-27T18:10:28.680Z,9.68
2018-09-27T18:12:55.558Z,10.53
2018-09-27T18:15:22.534Z,14.60
2018-09-27T18:17:49.490Z,15.67
2018-09-27T18:20:16.593Z,12.97
2018-09-27T18:22:43.644Z,8.37
2018-09-27T18:25:10.514Z,10.50
2018-09-27T18:27:37.463Z,9.67
2018-09-27T18:30:04.537Z,7.73
2018-09-27T18:32:31.438Z,6.43
2018-09-27T18:34:58.459Z,5.03
2018-09-27T18:37:25.447Z,9.60
2018-09-27T18:39:52.905Z,6.50
2018-09-27T18:42:19.845Z,6.00
2018-09-27T18:44:46.885Z,6.60
2018-09-27T18:47:13.884Z,6.30
2018-09-27T18:49:40.997Z,4.07
2018-09-27T18:52:08.079Z,4.23
2018-09-27T18:54:35.046Z,4.37
2018-09-27T18:57:01.963Z,4.40
2018-09-27T18:59:28.882Z,3.70
2018-09-27T19:01:55.780Z,3.93
2018-09-27T19:04:24.750Z,3.33
2018-09-27T19:06:51.694Z,3.00
2018-09-27T19:09:18.537Z,3.22
2018-09-27T19:11:46.441Z,3.80
2018-09-27T19:14:13.388Z,3.87
2018-09-27T19:16:40.260Z,5.57
2018-09-27T19:19:08.215Z,4.27
2018-09-27T19:21:35.225Z,4.53
2018-09-27T19:24:02.080Z,4.70
2018-09-27T19:26:28.994Z,4.80
2018-09-27T19:28:55.853Z,4.13
2018-09-27T19:31:22.699Z,4.00
2018-09-27T19:33:49.666Z,4.13
2018-09-27T19:36:16.513Z,3.90
2018-09-27T19:38:43.394Z,4.60
2018-09-27T19:41:10.355Z,4.60
2018-09-27T19:43:37.275Z,4.73
2018-09-27T19:46:04.155Z,4.07
2018-09-27T19:48:31.398Z,4.67
2018-09-27T19:50:59.474Z,5.40
2018-09-27T19:53:26.478Z,4.73
2018-09-27T19:55:53.495Z,4.10
2018-09-27T19:58:20.436Z,4.40
2018-09-27T20:00:47.210Z,4.60
2018-09-27T20:03:14.075Z,5.10
2018-09-27T20:05:40.945Z,4.57
2018-09-27T20:08:07.876Z,4.33
2018-09-27T20:10:34.799Z,4.43
2018-09-27T20:13:02.122Z,4.07
2018-09-27T20:15:29.098Z,5.10
2018-09-27T20:17:56.038Z,4.80
2018-09-27T20:20:22.974Z,4.93
2018-09-27T20:22:49.870Z,5.90
2018-09-27T20:25:16.786Z,5.80
2018-09-27T20:27:43.657Z,6.77
2018-09-27T20:30:10.520Z,5.07
2018-09-27T20:32:37.466Z,7.13
2018-09-27T20:35:04.410Z,5.90
2018-09-27T20:37:32.294Z,5.57
2018-09-27T20:39:59.155Z,5.07
2018-09-27T20:42:26.023Z,5.67
2018-09-27T20:44:52.994Z,5.40
2018-09-27T20:47:19.936Z,4.97
2018-09-27T20:49:46.766Z,5.17
2018-09-27T20:52:13.626Z,4.10
2018-09-27T20:54:40.493Z,4.10
2018-09-27T20:57:07.738Z,4.37
2018-09-27T20:59:34.570Z,4.50
2018-09-27T21:02:01.491Z,6.20
2018-09-27T21:04:28.397Z,5.40
2018-09-27T21:06:55.238Z,6.33
2018-09-27T21:09:22.124Z,6.00
2018-09-27T21:11:49.077Z,6.37
2018-09-27T21:14:16.974Z,5.97
2018-09-27T21:16:43.925Z,5.93
2018-09-27T21:19:10.903Z,6.03
2018-09-27T21:21:37.826Z,6.47
2018-09-27T21:24:04.682Z,6.20
2018-09-27T21:26:31.665Z,5.53
2018-09-27T21:28:58.527Z,6.13
2018-09-27T21:31:25.489Z,5.17
2018-09-27T21:33:52.323Z,6.17
2018-09-27T21:36:19.267Z,6.70
2018-09-27T21:38:46.140Z,5.87
2018-09-27T21:41:13.078Z,6.03
2018-09-27T21:43:39.951Z,5.67
2018-09-27T21:46:07.018Z,7.53
2018-09-27T21:48:33.985Z,7.53
2018-09-27T21:51:00.955Z,7.57
2018-09-27T21:53:27.909Z,6.80
2018-09-27T21:55:54.822Z,6.50
2018-09-27T21:58:21.702Z,6.27
2018-09-27T22:00:50.990Z,6.23
2018-09-27T22:03:18.405Z,5.70
2018-09-27T22:05:45.306Z,6.50
2018-09-27T22:08:12.158Z,6.27
2018-09-27T22:10:39.068Z,5.53
2018-09-27T22:13:05.894Z,6.33
2018-09-27T22:15:32.722Z,6.00
2018-09-27T22:17:59.578Z,5.57
2018-09-27T22:20:26.426Z,5.83
2018-09-27T22:22:53.298Z,5.20
2018-09-27T22:25:20.262Z,5.30
2018-09-27T22:27:47.138Z,5.77
2018-09-27T22:30:14.073Z,5.40
2018-09-27T22:32:40.929Z,5.77
2018-09-27T22:35:07.786Z,5.40
2018-09-27T22:37:34.642Z,5.20
2018-09-27T22:40:02.483Z,5.67
2018-09-27T22:42:29.387Z,5.33
2018-09-27T22:44:56.346Z,5.60
2018-09-27T22:47:23.205Z,5.50
2018-09-27T22:49:50.210Z,5.20
2018-09-27T22:52:17.118Z,4.60
2018-09-27T22:54:44.072Z,4.90
2018-09-27T22:57:11.126Z,6.00
2018-09-27T22:59:38.093Z,6.27
2018-09-27T23:02:05.026Z,5.33
2018-09-27T23:04:31.899Z,5.70
2018-09-27T23:06:58.840Z,5.40
2018-09-27T23:09:25.682Z,5.73
2018-09-27T23:11:52.518Z,5.50
2018-09-27T23:14:19.405Z,5.33
2018-09-27T23:16:46.267Z,6.30
2018-09-27T23:19:13.097Z,5.30
2018-09-27T23:21:39.978Z,5.60
2018-09-27T23:24:06.831Z,5.13
2018-09-27T23:26:33.674Z,6.10
2018-09-27T23:29:00.530Z,5.80
2018-09-27T23:31:27.802Z,5.73
2018-09-27T23:33:54.648Z,6.10
2018-09-27T23:36:21.510Z,5.10
2018-09-27T23:38:48.366Z,5.70
2018-09-27T23:41:15.198Z,5.73
2018-09-27T23:43:42.073Z,4.80
2018-09-27T23:46:09.562Z,6.40
2018-09-27T23:48:36.494Z,6.20
2018-09-27T23:51:03.422Z,5.63
2018-09-27T23:53:30.359Z,5.77
2018-09-27T23:55:57.270Z,6.10
2018-09-27T23:58:24.326Z,6.30
